首页
METAR-TAF:

METAR-TAF

机场 :

仰光国际机场

仰光, 缅甸

纬度: 16-46N, 经度: 096-10E, 海拔: 14米

当前天气观测

该预报发布于1小时和8分钟前的23:00 UTC
风速2节,风向
温度 27°C
湿度 94%
气压 1006 hPa
能見度: 6000
多云层高于1800英尺
少量云层高于2000英尺, 积雨云.
多云层高于10000英尺

METAR: VYYY 162300Z 19002KT 6000 BKN018 FEW020CB BKN100 27/26 Q1006

时间: 06:38 (00:08 UTC)

预报

该预报发布于1小时和8分钟前的23:00 UTC
预报有效从17日的 00点(UTC)到 17日的 24点(UTC)
风速8节,风向西转西南
能見度: 7000
多云层高于1600英尺
少量云层高于1800英尺, 积雨云.
阴天层高于10000英尺
短暂存在
从 17日的 00点(UTC)到 17日的 06点(UTC)
风速8节,风向西南
能見度: 4000
短暂存在
从 17日的 06点(UTC)到 17日的 12点(UTC)
风速8节,风向西转西南
能見度: 4000
多云层高于1400英尺
少量云层高于1600英尺, 积雨云.
阴天层高于9000英尺
雷暴, 雨,

TAF: VYYY 162300Z 1700/1724 24008KT 7000 BKN016 FEW018CB OVC100 TEMPO 1700/1706 23008KT 4000 RA TEMPO 1706/1712 25008KT 4000 TSRA BKN014 FEW016CB OVC090

超过4000个机场的气象观测和天气预报(METAR&TAF报告)。

可查询的气象台以黄色和红色小点在地图上表示。

将鼠标移到小点上方,可查看气象台名称。

然后点击查看天气观测和预报。

如需切换地图:点击带黑十字的绿色按钮放大地图;点击带横线的绿色按钮缩小地图;或者点击绿色箭头查看邻近地区的地图。


METAR-TAF: